Time;durP1;ratioP1;P1;durP2;ratioP2;P2;SDS_P1;SDS_P2;PMS_P1;PMS_P2;Temp;Humidity;BMP_temperature;BMP_pressure;BME280_temperature;BME280_humidity;BME280_pressure;Samples;Min_cycle;Max_cycle;Signal;HPM_P1;HPM_P2
2023/04/06 00:01:57;;;;;;;23.75;13.02;;;8.60;99.90;;;;;;5102318;28;20055;-62
2023/04/06 00:04:23;;;;;;;24.70;12.73;;;8.60;99.90;;;;;;5120287;28;20392;-62
2023/04/06 00:06:49;;;;;;;22.27;12.82;;;8.50;1.00;;;;;;5120273;28;20196;-62
2023/04/06 00:09:15;;;;;;;21.13;12.85;;;8.60;1.00;;;;;;5120156;28;20274;-62
2023/04/06 00:11:41;;;;;;;26.05;13.40;;;8.70;1.00;;;;;;5119533;28;20023;-63
2023/04/06 00:14:07;;;;;;;22.00;13.00;;;8.70;1.00;;;;;;5120189;28;20042;-62
2023/04/06 00:16:32;;;;;;;21.88;12.85;;;8.70;1.00;;;;;;5119505;28;20058;-63
2023/04/06 00:18:58;;;;;;;23.33;13.32;;;8.70;99.90;;;;;;5119276;28;20035;-62
2023/04/06 00:21:25;;;;;;;23.80;13.30;;;8.60;99.90;;;;;;5120227;28;20070;-62
2023/04/06 00:23:51;;;;;;;20.13;12.35;;;8.60;1.00;;;;;;5119931;28;20023;-63
2023/04/06 00:26:17;;;;;;;20.80;12.63;;;8.50;1.00;;;;;;5119898;28;20100;-62
2023/04/06 00:28:46;;;;;;;21.33;12.60;;;8.40;1.00;;;;;;5119021;28;20308;-62
2023/04/06 00:31:12;;;;;;;20.90;12.68;;;8.60;1.00;;;;;;5119015;28;20351;-63
2023/04/06 00:33:38;;;;;;;22.77;12.48;;;8.80;1.00;;;;;;5119008;28;20118;-60
2023/04/06 00:36:05;;;;;;;23.67;12.93;;;8.80;1.00;;;;;;5102015;28;20028;-62
2023/04/06 00:38:31;;;;;;;19.55;12.10;;;8.90;1.00;;;;;;5118906;28;20035;-62
2023/04/06 00:40:59;;;;;;;20.67;11.70;;;8.90;99.90;;;;;;5119869;28;20071;-62
2023/04/06 00:43:26;;;;;;;19.75;12.02;;;8.70;99.90;;;;;;5120026;28;20318;-62
2023/04/06 00:45:52;;;;;;;21.15;12.82;;;8.60;1.00;;;;;;5118756;28;20396;-63
2023/04/06 00:48:20;;;;;;;17.73;12.05;;;8.60;1.00;;;;;;5117871;28;20345;-63
2023/04/06 00:50:46;;;;;;;19.40;12.07;;;8.50;1.00;;;;;;5118808;28;20051;-61
2023/04/06 00:53:12;;;;;;;20.77;12.05;;;8.60;1.00;;;;;;5119713;28;20063;-62
2023/04/06 00:55:39;;;;;;;18.15;11.65;;;8.60;99.90;;;;;;5118650;28;20404;-63
2023/04/06 00:58:05;;;;;;;20.50;12.30;;;8.50;1.00;;;;;;5119321;28;20453;-62
2023/04/06 01:00:39;;;;;;;19.77;12.10;;;8.50;1.00;;;;;;5118758;28;20027;-62
2023/04/06 01:03:06;;;;;;;19.98;12.00;;;8.50;1.00;;;;;;5118458;28;20035;-61
2023/04/06 01:05:40;;;;;;;18.48;11.63;;;8.60;1.00;;;;;;5118502;28;20040;-62
2023/04/06 01:08:13;;;;;;;18.05;11.13;;;8.60;1.00;;;;;;5118348;28;20028;-62
2023/04/06 01:10:39;;;;;;;19.92;11.50;;;8.50;1.00;;;;;;5118312;28;20027;-62
2023/04/06 01:13:12;;;;;;;20.52;12.35;;;8.50;1.00;;;;;;5118412;28;20036;-63
2023/04/06 01:15:46;;;;;;;21.55;11.68;;;8.30;1.00;;;;;;5119351;28;20024;-62
2023/04/06 01:18:17;;;;;;;17.77;11.48;;;8.30;1.00;;;;;;5118160;28;20027;-62
2023/04/06 01:20:53;;;;;;;19.17;10.38;;;8.30;1.00;;;;;;5118320;28;20027;-62
2023/04/06 01:23:19;;;;;;;19.40;11.52;;;8.30;1.00;;;;;;5117974;28;20031;-62
2023/04/06 01:25:47;;;;;;;19.52;10.45;;;8.40;1.00;;;;;;5117989;28;20115;-62
2023/04/06 01:28:13;;;;;;;22.60;11.43;;;8.40;1.00;;;;;;5118835;28;20281;-62
2023/04/06 01:31:07;;;;;;;19.33;11.57;;;8.30;1.00;;;;;;5116482;28;20096;-61
2023/04/06 01:33:43;;;;;;;17.77;10.98;;;8.30;1.00;;;;;;5117817;28;20270;-62
2023/04/06 01:36:14;;;;;;;19.58;11.20;;;8.20;1.00;;;;;;5117782;28;20059;-62
2023/04/06 01:38:41;;;;;;;19.52;11.18;;;8.10;1.00;;;;;;5117759;28;20031;-62
2023/04/06 01:41:08;;;;;;;18.33;11.07;;;8.10;1.00;;;;;;5117600;28;20053;-61
2023/04/06 01:43:47;;;;;;;18.92;11.13;;;8.00;1.00;;;;;;5117620;28;20031;-62
2023/04/06 01:46:13;;;;;;;18.63;10.98;;;8.00;1.00;;;;;;5118286;28;20107;-62
2023/04/06 01:48:42;;;;;;;18.80;10.43;;;7.90;1.00;;;;;;5117420;28;20031;-62
2023/04/06 01:51:16;;;;;;;17.10;10.95;;;7.90;1.00;;;;;;5117446;28;20407;-62
2023/04/06 01:53:50;;;;;;;19.02;10.75;;;7.90;1.00;;;;;;5117448;28;20051;-61
2023/04/06 01:56:20;;;;;;;19.85;10.98;;;7.90;1.00;;;;;;5117396;28;20468;-62
2023/04/06 01:58:56;;;;;;;16.10;10.20;;;7.90;1.00;;;;;;5101567;28;20051;-61
2023/04/06 02:01:22;;;;;;;18.70;11.18;;;7.80;1.00;;;;;;5100510;28;20445;-62
2023/04/06 02:03:53;;;;;;;16.55;10.80;;;7.90;1.00;;;;;;5118075;28;20042;-62
2023/04/06 02:06:19;;;;;;;17.92;10.57;;;7.90;1.00;;;;;;5117331;28;20313;-62
2023/04/06 02:08:45;;;;;;;18.13;11.00;;;7.90;1.00;;;;;;5117086;28;20296;-62
2023/04/06 02:11:11;;;;;;;19.00;11.23;;;8.00;1.00;;;;;;5117042;28;20032;-62
2023/04/06 02:13:45;;;;;;;17.38;11.07;;;8.00;1.00;;;;;;5117154;28;20073;-62
2023/04/06 02:16:11;;;;;;;18.77;10.63;;;8.10;1.00;;;;;;5118275;28;20069;-62
2023/04/06 02:18:37;;;;;;;18.45;11.13;;;8.10;1.00;;;;;;5118083;28;20028;-62
2023/04/06 02:21:04;;;;;;;17.45;10.93;;;8.10;1.00;;;;;;5116920;28;20036;-62
2023/04/06 02:23:30;;;;;;;19.23;10.55;;;8.10;1.00;;;;;;5117746;28;20043;-62
2023/04/06 02:25:56;;;;;;;17.73;10.80;;;7.90;1.00;;;;;;5116910;28;20035;-62
2023/04/06 02:28:22;;;;;;;18.45;10.80;;;7.80;1.00;;;;;;5116754;28;20320;-62
2023/04/06 02:30:48;;;;;;;19.63;11.07;;;7.70;1.00;;;;;;5117555;28;20034;-62
2023/04/06 02:33:14;;;;;;;15.85;11.02;;;7.70;1.00;;;;;;5116812;28;20030;-62
2023/04/06 02:35:45;;;;;;;17.80;11.10;;;7.70;1.00;;;;;;5117569;28;20042;-62
2023/04/06 02:38:11;;;;;;;19.13;10.88;;;7.80;1.00;;;;;;5116799;28;20035;-62
2023/04/06 02:40:37;;;;;;;18.42;11.38;;;7.90;1.00;;;;;;5116678;28;20042;-61
2023/04/06 02:43:16;;;;;;;18.73;11.45;;;7.90;1.00;;;;;;5116667;28;20044;-61
2023/04/06 02:45:43;;;;;;;18.27;10.80;;;7.90;1.00;;;;;;5116866;28;20403;-62
2023/04/06 02:48:10;;;;;;;18.20;11.07;;;7.90;1.00;;;;;;5099913;28;20103;-61
2023/04/06 02:50:36;;;;;;;17.08;11.35;;;7.90;1.00;;;;;;5116808;28;20035;-62
2023/04/06 02:53:05;;;;;;;16.17;10.98;;;7.80;1.00;;;;;;5116628;28;20023;-62
2023/04/06 02:55:32;;;;;;;18.55;10.93;;;7.80;1.00;;;;;;5099756;28;20032;-62
2023/04/06 02:57:58;;;;;;;17.45;10.98;;;7.90;1.00;;;;;;5116477;28;20373;-62
2023/04/06 03:00:28;;;;;;;18.83;11.07;;;7.90;1.00;;;;;;5116626;28;20032;-62
2023/04/06 03:02:55;;;;;;;17.20;10.75;;;7.80;1.00;;;;;;5116733;28;20059;-64
2023/04/06 03:05:21;;;;;;;20.63;11.15;;;7.70;1.00;;;;;;5116568;28;20312;-62
2023/04/06 03:07:47;;;;;;;17.23;10.75;;;7.60;1.00;;;;;;5099353;28;20322;-62
2023/04/06 03:10:21;;;;;;;20.38;11.65;;;7.60;1.00;;;;;;5116614;28;20084;-62
2023/04/06 03:12:47;;;;;;;19.50;10.93;;;7.60;1.00;;;;;;5120537;28;20027;-62
2023/04/06 03:15:20;;;;;;;;;;;7.70;1.00;;;;;;5122469;28;20039;-62
2023/04/06 03:18:00;;;;;;;18.95;10.23;;;7.70;1.00;;;;;;5120524;28;20048;-62
2023/04/06 03:20:34;;;;;;;17.02;10.35;;;7.70;1.00;;;;;;5120547;28;20028;-62
2023/04/06 03:23:00;;;;;;;16.15;10.15;;;7.70;1.00;;;;;;5121257;28;20121;-62
2023/04/06 03:25:32;;;;;;;17.42;10.75;;;7.70;1.00;;;;;;5120419;28;20027;-63
2023/04/06 03:28:03;;;;;;;15.50;10.43;;;7.60;1.00;;;;;;5088008;28;20118;-62
2023/04/06 03:30:30;;;;;;;16.13;11.02;;;7.60;1.00;;;;;;5103564;28;20024;-62
2023/04/06 03:32:56;;;;;;;15.65;10.32;;;7.70;1.00;;;;;;5120198;28;20039;-62
2023/04/06 03:35:25;;;;;;;15.80;10.57;;;7.70;1.00;;;;;;5087100;28;20055;-62
2023/04/06 03:37:51;;;;;;;16.45;10.45;;;7.70;1.00;;;;;;5120790;28;20020;-62
2023/04/06 03:40:17;;;;;;;17.90;10.50;;;7.80;1.00;;;;;;5120775;28;20066;-62
2023/04/06 03:42:43;;;;;;;19.27;10.15;;;7.80;1.00;;;;;;5119939;28;20052;-62
2023/04/06 03:45:13;;;;;;;18.38;10.90;;;7.80;1.00;;;;;;5119921;28;20120;-62
2023/04/06 03:47:45;;;;;;;15.13;10.45;;;7.60;1.00;;;;;;5119827;28;20032;-62
2023/04/06 03:50:11;;;;;;;18.88;11.30;;;7.50;1.00;;;;;;5119806;28;20062;-62
2023/04/06 03:52:37;;;;;;;17.15;10.60;;;7.50;1.00;;;;;;5119770;28;20408;-63
2023/04/06 03:55:04;;;;;;;17.35;10.23;;;7.50;1.00;;;;;;5119913;28;20091;-63
2023/04/06 03:57:30;;;;;;;16.58;10.20;;;7.50;1.00;;;;;;5120447;28;20089;-62
2023/04/06 03:59:57;;;;;;;18.15;10.93;;;7.60;1.00;;;;;;5120317;28;20407;-62
2023/04/06 04:02:25;;;;;;;17.33;10.63;;;7.70;1.00;;;;;;5119609;28;20122;-62
2023/04/06 04:04:51;;;;;;;20.40;10.63;;;7.70;1.00;;;;;;5120454;28;20123;-62
2023/04/06 04:07:17;;;;;;;19.88;10.95;;;7.70;1.00;;;;;;5120294;28;20050;-62
2023/04/06 04:09:43;;;;;;;20.38;10.93;;;7.70;1.00;;;;;;5120161;28;20031;-62
2023/04/06 04:12:10;;;;;;;17.52;10.50;;;7.60;1.00;;;;;;5119425;28;20096;-62
2023/04/06 04:14:36;;;;;;;19.23;11.13;;;7.60;1.00;;;;;;5119393;28;20038;-63
2023/04/06 04:17:02;;;;;;;21.08;10.55;;;7.70;1.00;;;;;;5119321;28;20015;-62
2023/04/06 04:19:28;;;;;;;17.63;10.57;;;7.60;1.00;;;;;;5102388;28;20032;-62
2023/04/06 04:21:55;;;;;;;19.55;10.57;;;7.50;1.00;;;;;;5118288;28;20312;-62
2023/04/06 04:24:28;;;;;;;22.77;10.65;;;7.30;1.00;;;;;;5119196;28;20042;-62
2023/04/06 04:26:55;;;;;;;22.77;10.52;;;7.30;1.00;;;;;;5119138;28;20404;-62
2023/04/06 04:29:22;;;;;;;21.48;11.48;;;7.20;1.00;;;;;;5119111;28;20028;-63
2023/04/06 04:31:50;;;;;;;22.63;11.57;;;7.30;1.00;;;;;;5119161;28;20061;-62
2023/04/06 04:34:19;;;;;;;17.33;10.50;;;7.30;1.00;;;;;;5119007;28;20408;-62
2023/04/06 04:36:45;;;;;;;17.88;10.75;;;7.40;1.00;;;;;;5120073;28;20027;-62
2023/04/06 04:39:19;;;;;;;18.58;10.50;;;7.50;1.00;;;;;;5103127;28;20089;-63
2023/04/06 04:41:49;;;;;;;19.75;11.15;;;7.60;1.00;;;;;;5118905;28;20051;-63
2023/04/06 04:44:16;;;;;;;17.40;10.25;;;7.60;1.00;;;;;;5118857;28;20032;-63
2023/04/06 04:46:42;;;;;;;19.65;11.38;;;7.70;1.00;;;;;;5119577;28;20042;-62
2023/04/06 04:49:09;;;;;;;16.15;9.95;;;7.70;1.00;;;;;;5101966;28;20036;-63
2023/04/06 04:51:36;;;;;;;19.05;10.23;;;7.80;1.00;;;;;;5118686;28;20032;-63
2023/04/06 04:54:12;;;;;;;19.77;11.18;;;7.80;1.00;;;;;;5119419;28;20035;-62
2023/04/06 04:56:39;;;;;;;19.75;11.25;;;7.80;1.00;;;;;;5101795;28;20035;-63
2023/04/06 04:59:22;;;;;;;19.27;11.02;;;7.80;1.00;;;;;;5118614;28;20035;-63
2023/04/06 05:01:55;;;;;;;21.38;11.02;;;7.90;1.00;;;;;;5118476;28;20043;-63
2023/04/06 05:04:29;;;;;;;18.67;11.30;;;7.80;1.00;;;;;;5118469;28;20090;-63
2023/04/06 05:07:09;;;;;;;17.42;10.48;;;7.80;1.00;;;;;;5119051;28;20069;-62
2023/04/06 05:09:37;;;;;;;16.30;10.80;;;7.90;1.00;;;;;;5118258;28;20019;-63
2023/04/06 05:12:03;;;;;;;17.23;10.95;;;8.00;1.00;;;;;;5118994;28;20036;-63
2023/04/06 05:14:34;;;;;;;18.73;11.05;;;8.20;1.00;;;;;;5118717;28;20050;-63
2023/04/06 05:17:02;;;;;;;15.98;10.45;;;8.30;1.00;;;;;;5117948;28;20040;-64
2023/04/06 05:19:29;;;;;;;18.55;10.98;;;8.40;1.00;;;;;;5118796;28;20031;-63
2023/04/06 05:21:56;;;;;;;21.42;11.57;;;8.50;1.00;;;;;;5118038;28;20317;-63
2023/04/06 05:24:22;;;;;;;22.58;11.43;;;8.50;1.00;;;;;;5118034;28;20027;-63
2023/04/06 05:26:49;;;;;;;19.08;11.50;;;8.40;1.00;;;;;;5118059;28;20058;-63
2023/04/06 05:29:21;;;;;;;20.67;12.02;;;8.20;1.00;;;;;;5117989;28;20088;-63
2023/04/06 05:31:47;;;;;;;18.67;11.45;;;8.30;1.00;;;;;;5101038;28;20028;-63
2023/04/06 05:34:13;;;;;;;18.45;10.90;;;8.30;1.00;;;;;;5117329;28;20055;-62
2023/04/06 05:36:40;;;;;;;21.33;11.98;;;8.30;1.00;;;;;;5101155;28;20062;-62
2023/04/06 05:39:15;;;;;;;17.45;11.63;;;8.10;1.00;;;;;;5102117;28;20039;-62
2023/04/06 05:41:49;;;;;;;22.00;12.35;;;7.90;1.00;;;;;;5102065;28;20047;-62
2023/04/06 05:44:18;;;;;;;22.45;12.70;;;7.80;1.00;;;;;;5101292;28;20305;-63
2023/04/06 05:46:48;;;;;;;17.88;12.02;;;7.80;1.00;;;;;;5117742;28;20040;-63
2023/04/06 05:49:16;;;;;;;22.05;11.77;;;7.80;1.00;;;;;;5117545;28;20444;-63
2023/04/06 05:51:42;;;;;;;22.70;12.65;;;7.80;1.00;;;;;;5117540;28;20027;-63
2023/04/06 05:54:08;;;;;;;20.10;13.02;;;7.90;1.00;;;;;;5118050;28;20024;-63
2023/04/06 05:56:34;;;;;;;23.63;13.45;;;7.90;1.00;;;;;;5117461;28;20024;-63
2023/04/06 05:59:01;;;;;;;25.55;13.55;;;8.00;1.00;;;;;;5118247;28;20420;-62
2023/04/06 06:01:29;;;;;;;26.92;13.50;;;7.90;1.00;;;;;;5117143;28;20118;-63
2023/04/06 06:03:55;;;;;;;19.15;12.45;;;7.80;1.00;;;;;;5117351;28;20031;-62
2023/04/06 06:06:24;;;;;;;23.67;13.88;;;8.00;1.00;;;;;;5100560;28;20134;-62
2023/04/06 06:09:10;;;;;;;23.48;13.75;;;8.00;1.00;;;;;;5110477;28;20040;-62
2023/04/06 06:11:42;;;;;;;21.38;13.95;;;8.20;1.00;;;;;;5101324;28;20031;-63
2023/04/06 06:14:10;;;;;;;23.52;13.50;;;8.20;1.00;;;;;;5117146;28;20292;-62
2023/04/06 06:16:38;;;;;;;21.02;13.13;;;8.30;1.00;;;;;;5117064;28;20020;-62
2023/04/06 06:19:05;;;;;;;22.13;13.85;;;8.20;1.00;;;;;;5117022;28;20035;-62
2023/04/06 06:21:32;;;;;;;24.27;15.25;;;8.20;1.00;;;;;;5118061;28;20062;-64
2023/04/06 06:23:57;;;;;;;22.58;14.75;;;8.30;1.00;;;;;;5116837;28;20031;-62
2023/04/06 06:26:24;;;;;;;21.65;14.60;;;8.40;1.00;;;;;;5116881;28;20104;-62
2023/04/06 06:28:50;;;;;;;24.77;14.75;;;8.30;1.00;;;;;;5116722;28;20418;-62
2023/04/06 06:31:16;;;;;;;24.77;15.25;;;8.40;1.00;;;;;;5116745;28;20019;-62
2023/04/06 06:33:43;;;;;;;24.88;15.55;;;8.40;1.00;;;;;;5116734;28;20035;-62
2023/04/06 06:36:09;;;;;;;26.80;15.60;;;8.30;1.00;;;;;;5116952;28;20350;-62
2023/04/06 06:38:35;;;;;;;27.30;16.90;;;8.50;1.00;;;;;;5117529;28;20040;-64
2023/04/06 06:41:01;;;;;;;26.60;16.40;;;8.50;1.00;;;;;;5117305;28;20024;-62
2023/04/06 06:43:30;;;;;;;24.00;16.75;;;8.60;1.00;;;;;;5116665;28;20104;-61
2023/04/06 06:46:02;;;;;;;28.45;17.00;;;8.60;1.00;;;;;;5099856;28;20032;-62
2023/04/06 06:48:28;;;;;;;28.58;16.83;;;8.60;1.00;;;;;;5117251;27;20084;-63
2023/04/06 06:50:54;;;;;;;30.23;18.23;;;8.50;11.80;;;;;;5116534;28;20027;-62
2023/04/06 06:53:20;;;;;;;25.92;17.30;;;8.60;17.80;;;;;;5117267;28;20114;-62
2023/04/06 06:55:46;;;;;;;27.83;17.73;;;8.70;24.10;;;;;;5117839;28;20061;-62
2023/04/06 06:58:12;;;;;;;29.95;18.38;;;8.70;28.20;;;;;;5116545;28;20120;-62
2023/04/06 07:00:38;;;;;;;26.20;16.60;;;8.60;37.80;;;;;;5116518;28;20039;-62
2023/04/06 07:03:04;;;;;;;26.40;17.08;;;8.80;35.70;;;;;;5116433;28;20036;-63
2023/04/06 07:05:30;;;;;;;25.95;17.33;;;8.60;39.00;;;;;;5116462;28;20031;-63
2023/04/06 07:07:58;;;;;;;24.70;17.25;;;8.50;51.20;;;;;;5116124;28;20293;-63
2023/04/06 07:10:26;;;;;;;28.15;17.17;;;8.40;58.90;;;;;;5116247;28;20066;-64
2023/04/06 07:12:51;;;;;;;25.98;17.38;;;8.40;64.60;;;;;;5116447;28;20420;-62
2023/04/06 07:15:17;;;;;;;26.30;16.95;;;8.30;68.70;;;;;;5117002;28;20044;-62
2023/04/06 07:17:46;;;;;;;30.42;18.42;;;8.30;74.90;;;;;;5116213;28;20027;-64
2023/04/06 07:20:13;;;;;;;29.85;19.13;;;8.10;81.10;;;;;;5099280;28;20100;-63
2023/04/06 07:22:40;;;;;;;30.65;19.10;;;8.10;89.20;;;;;;5117087;28;20082;-62
2023/04/06 07:25:09;;;;;;;30.60;19.45;;;8.00;90.80;;;;;;5117326;28;20032;-64
2023/04/06 07:27:34;;;;;;;29.55;18.00;;;8.10;92.30;;;;;;5116292;28;20031;-62
2023/04/06 07:30:01;;;;;;;25.02;16.02;;;8.20;90.00;;;;;;5116539;28;20039;-62
2023/04/06 07:32:27;;;;;;;23.63;15.88;;;8.10;89.40;;;;;;5116206;28;20027;-62
2023/04/06 07:34:53;;;;;;;26.00;16.42;;;8.10;91.40;;;;;;5116175;28;20044;-63
2023/04/06 07:37:19;;;;;;;27.40;15.73;;;8.20;93.80;;;;;;5116931;28;20042;-62
2023/04/06 07:39:47;;;;;;;29.55;16.23;;;8.20;93.20;;;;;;5116945;28;20050;-62
2023/04/06 07:42:13;;;;;;;24.90;14.80;;;8.20;94.10;;;;;;5115808;28;20055;-62
2023/04/06 07:44:39;;;;;;;21.63;14.57;;;8.20;94.10;;;;;;5116863;28;20066;-63
2023/04/06 07:47:05;;;;;;;20.85;14.48;;;8.40;94.20;;;;;;5099097;28;20039;-62
2023/04/06 07:49:32;;;;;;;23.48;13.98;;;8.50;91.20;;;;;;5116694;28;20035;-61
2023/04/06 07:51:59;;;;;;;23.00;15.07;;;8.40;91.70;;;;;;5099072;28;20043;-62
2023/04/06 07:54:26;;;;;;;23.45;14.05;;;8.30;94.30;;;;;;5099380;28;20092;-61
2023/04/06 07:56:53;;;;;;;20.40;13.30;;;8.30;93.60;;;;;;5117849;28;20043;-61
2023/04/06 07:59:19;;;;;;;20.67;13.35;;;8.30;93.50;;;;;;5120476;28;20042;-61
2023/04/06 08:01:45;;;;;;;22.17;13.20;;;8.10;94.60;;;;;;5120956;28;20035;-61
2023/04/06 08:04:10;;;;;;;21.02;13.63;;;8.10;94.90;;;;;;5120451;28;20036;-62
2023/04/06 08:06:36;;;;;;;21.92;14.45;;;8.10;96.30;;;;;;5120522;28;20031;-61
2023/04/06 08:09:03;;;;;;;19.38;13.40;;;8.00;97.10;;;;;;5120289;28;20028;-62
2023/04/06 08:11:29;;;;;;;19.58;13.05;;;8.10;97.30;;;;;;5120426;28;20292;-61
2023/04/06 08:13:56;;;;;;;17.73;11.80;;;8.20;98.00;;;;;;5120325;28;20102;-62
2023/04/06 08:16:23;;;;;;;18.25;11.38;;;8.30;96.60;;;;;;5120525;27;20313;-61
2023/04/06 08:18:49;;;;;;;18.73;11.93;;;8.30;97.80;;;;;;5119679;28;20038;-61
2023/04/06 08:21:15;;;;;;;19.15;12.52;;;8.40;99.20;;;;;;5120719;28;20272;-63
2023/04/06 08:23:41;;;;;;;16.60;10.55;;;8.40;99.90;;;;;;5120137;28;20027;-63
2023/04/06 08:26:07;;;;;;;13.40;9.55;;;8.40;98.70;;;;;;5120096;28;20053;-62
2023/04/06 08:28:34;;;;;;;16.08;10.85;;;8.30;98.20;;;;;;5119868;28;20039;-62
2023/04/06 08:31:06;;;;;;;16.35;10.73;;;8.40;99.70;;;;;;5119205;28;20027;-62
2023/04/06 08:33:35;;;;;;;15.23;11.10;;;8.50;99.90;;;;;;5119979;28;20020;-62
2023/04/06 08:36:09;;;;;;;16.55;10.38;;;8.40;99.90;;;;;;5119256;28;20034;-61
2023/04/06 08:38:36;;;;;;;14.85;10.32;;;8.40;99.90;;;;;;5102014;28;20187;-62
2023/04/06 08:41:08;;;;;;;15.75;10.35;;;8.30;99.90;;;;;;5119604;28;20039;-64
2023/04/06 08:43:42;;;;;;;16.40;10.10;;;8.30;99.90;;;;;;5119758;28;20035;-61
2023/04/06 08:46:10;;;;;;;14.90;9.65;;;8.40;99.90;;;;;;5119818;28;20035;-62
2023/04/06 08:48:38;;;;;;;12.73;9.48;;;8.50;99.90;;;;;;5118804;28;20040;-63
2023/04/06 08:51:04;;;;;;;12.18;9.13;;;8.40;99.90;;;;;;5119776;28;20258;-61
2023/04/06 08:53:30;;;;;;;15.70;9.40;;;8.30;99.90;;;;;;5118705;28;20354;-62
2023/04/06 08:55:58;;;;;;;15.25;9.00;;;8.30;99.90;;;;;;5119346;28;20019;-63
2023/04/06 08:58:25;;;;;;;12.63;8.65;;;8.40;99.90;;;;;;5119377;27;20043;-62
2023/04/06 09:00:52;;;;;;;10.75;7.43;;;8.40;99.90;;;;;;5120001;28;20066;-61
2023/04/06 09:03:19;;;;;;;8.75;6.85;;;8.30;99.90;;;;;;5119344;28;20475;-63
2023/04/06 09:05:47;;;;;;;9.35;6.65;;;8.20;99.90;;;;;;5119380;28;20034;-61
2023/04/06 09:08:13;;;;;;;8.48;6.45;;;8.30;99.90;;;;;;5118270;28;20252;-60
2023/04/06 09:10:42;;;;;;;14.02;6.97;;;8.30;99.90;;;;;;5119271;28;20454;-62
2023/04/06 09:13:09;;;;;;;9.45;5.90;;;8.30;99.90;;;;;;5118432;28;20023;-60
2023/04/06 09:15:35;;;;;;;14.13;6.40;;;8.30;99.90;;;;;;5119027;28;20023;-62
2023/04/06 09:18:01;;;;;;;10.85;5.90;;;8.30;99.90;;;;;;5119049;28;20039;-60
2023/04/06 09:20:28;;;;;;;9.75;5.78;;;8.30;99.90;;;;;;5118885;28;20038;-59
2023/04/06 09:22:55;;;;;;;9.25;5.90;;;8.40;99.90;;;;;;5118828;28;20176;-60
2023/04/06 09:25:22;;;;;;;7.93;5.55;;;8.40;99.90;;;;;;5118067;28;20063;-60
2023/04/06 09:27:58;;;;;;;9.43;5.88;;;8.50;99.90;;;;;;5118756;28;20035;-61
2023/04/06 09:30:24;;;;;;;7.57;5.63;;;8.50;99.90;;;;;;5118834;28;20035;-61
2023/04/06 09:32:52;;;;;;;8.77;5.95;;;8.50;99.90;;;;;;5118592;28;20031;-60
2023/04/06 09:35:22;;;;;;;8.38;5.57;;;8.60;99.90;;;;;;5118663;28;20036;-60
2023/04/06 09:37:50;;;;;;;9.90;5.68;;;8.50;99.90;;;;;;5118760;28;20051;-61
2023/04/06 09:40:19;;;;;;;9.70;6.15;;;8.40;99.90;;;;;;5117869;28;20027;-61
2023/04/06 09:42:46;;;;;;;9.52;6.32;;;8.30;99.90;;;;;;5117858;28;20132;-63
2023/04/06 09:45:13;;;;;;;10.73;7.28;;;8.40;99.90;;;;;;5118652;28;20016;-62
2023/04/06 09:47:42;;;;;;;8.73;6.88;;;8.40;99.90;;;;;;5118478;28;20023;-60
2023/04/06 09:50:10;;;;;;;10.30;7.13;;;8.50;99.90;;;;;;5118424;28;20067;-62
2023/04/06 09:52:50;;;;;;;11.70;6.63;;;8.50;99.90;;;;;;5118421;28;20042;-60
2023/04/06 09:55:37;;;;;;;9.05;6.97;;;8.60;99.90;;;;;;5118294;28;20024;-60
2023/04/06 09:58:09;;;;;;;10.23;7.22;;;8.60;99.90;;;;;;5117579;28;20504;-61
2023/04/06 10:00:53;;;;;;;13.38;7.35;;;8.80;99.90;;;;;;5118221;28;20032;-61
2023/04/06 10:03:33;;;;;;;11.65;7.50;;;8.60;99.90;;;;;;5118142;28;20098;-61
2023/04/06 10:06:05;;;;;;;12.93;7.82;;;8.60;99.90;;;;;;5118222;28;20130;-60
2023/04/06 10:08:35;;;;;;;12.70;8.43;;;8.50;99.90;;;;;;5118237;28;20108;-61
2023/04/06 10:11:01;;;;;;;12.05;8.05;;;8.60;99.90;;;;;;5118149;28;20047;-61
2023/04/06 10:13:27;;;;;;;10.95;8.45;;;8.60;99.90;;;;;;5117984;28;20038;-62
2023/04/06 10:15:54;;;;;;;11.35;8.57;;;8.70;99.90;;;;;;5117994;28;20043;-60
2023/04/06 10:18:21;;;;;;;13.63;8.77;;;8.60;99.90;;;;;;5117913;28;20027;-61
2023/04/06 10:20:53;;;;;;;10.88;8.32;;;8.50;99.90;;;;;;5117000;28;20049;-61
2023/04/06 10:23:43;;;;;;;12.30;9.10;;;8.40;99.90;;;;;;5117924;28;20088;-61
2023/04/06 10:26:16;;;;;;;14.07;8.77;;;8.50;99.90;;;;;;5117265;28;20032;-59
2023/04/06 10:28:44;;;;;;;14.07;9.00;;;8.50;99.90;;;;;;5117086;28;20034;-61
2023/04/06 10:31:10;;;;;;;14.43;8.57;;;8.60;99.90;;;;;;5117812;28;20319;-61
2023/04/06 10:33:36;;;;;;;11.65;8.60;;;8.70;99.90;;;;;;5117687;28;20027;-62
2023/04/06 10:36:21;;;;;;;11.75;8.43;;;8.60;99.90;;;;;;5117676;28;20054;-61
2023/04/06 10:38:54;;;;;;;11.10;8.50;;;8.50;99.90;;;;;;5117610;28;20110;-59
2023/04/06 10:41:20;;;;;;;13.02;9.27;;;8.50;99.90;;;;;;5117896;28;20039;-61
2023/04/06 10:43:58;;;;;;;17.13;9.27;;;8.50;99.90;;;;;;5117526;28;20028;-61
2023/04/06 10:46:30;;;;;;;13.77;8.82;;;8.50;99.90;;;;;;5118616;28;20444;-60
2023/04/06 10:48:56;;;;;;;13.85;8.95;;;8.50;99.90;;;;;;5117272;28;20106;-62
2023/04/06 10:51:29;;;;;;;11.55;8.40;;;8.50;99.90;;;;;;5116604;28;20083;-60
2023/04/06 10:53:55;;;;;;;13.48;9.50;;;8.50;99.90;;;;;;5117263;28;20023;-60
2023/04/06 10:56:25;;;;;;;13.10;9.60;;;8.40;99.90;;;;;;5117262;28;20031;-60
2023/04/06 10:58:55;;;;;;;13.20;9.52;;;8.50;99.90;;;;;;5117210;28;20027;-61
2023/04/06 11:01:24;;;;;;;13.35;9.52;;;8.40;99.90;;;;;;5117762;28;20034;-61
2023/04/06 11:03:52;;;;;;;15.48;9.55;;;8.40;99.90;;;;;;5116490;28;20024;-61
2023/04/06 11:06:26;;;;;;;13.63;9.57;;;8.40;99.90;;;;;;5116575;28;20067;-60
2023/04/06 11:08:54;;;;;;;14.85;10.00;;;8.50;99.90;;;;;;5117145;28;20108;-61
2023/04/06 11:11:21;;;;;;;15.43;9.55;;;8.60;99.90;;;;;;5117509;28;20038;-61
2023/04/06 11:13:52;;;;;;;13.23;9.68;;;8.50;99.90;;;;;;5116431;28;20038;-60
2023/04/06 11:16:20;;;;;;;13.18;9.18;;;8.40;99.90;;;;;;5117131;28;20028;-61
2023/04/06 11:19:01;;;;;;;15.52;10.18;;;8.40;99.90;;;;;;5099431;28;20024;-60
2023/04/06 11:21:48;;;;;;;18.00;10.45;;;8.30;99.90;;;;;;5116491;28;20036;-60
2023/04/06 11:24:16;;;;;;;16.08;10.68;;;8.30;99.90;;;;;;5117206;28;20035;-62
2023/04/06 11:26:54;;;;;;;15.27;10.82;;;8.40;99.90;;;;;;5117084;28;20035;-60
2023/04/06 11:29:25;;;;;;;14.43;10.38;;;8.50;99.90;;;;;;5116295;28;20035;-60
2023/04/06 11:31:53;;;;;;;16.73;10.70;;;8.50;99.90;;;;;;5118343;28;20512;-61
2023/04/06 11:34:21;;;;;;;15.98;11.25;;;8.50;99.90;;;;;;5120862;28;20114;-61
2023/04/06 11:36:53;;;;;;;19.05;12.07;;;8.50;99.90;;;;;;5120197;28;20073;-61
2023/04/06 11:39:24;;;;;;;15.27;10.77;;;8.50;99.90;;;;;;5120870;28;20107;-61
2023/04/06 11:41:58;;;;;;;15.10;11.02;;;8.50;99.90;;;;;;5119932;28;20088;-61
2023/04/06 11:44:39;;;;;;;17.15;11.32;;;8.60;99.90;;;;;;5120761;28;20055;-61
2023/04/06 11:47:07;;;;;;;15.00;11.13;;;8.60;99.90;;;;;;5121183;28;20063;-64
2023/04/06 11:49:36;;;;;;;15.48;10.73;;;8.60;99.90;;;;;;5120646;27;20058;-62
2023/04/06 11:52:02;;;;;;;17.55;11.43;;;8.60;99.90;;;;;;5120688;28;20354;-60
2023/04/06 11:54:35;;;;;;;16.38;11.68;;;8.60;99.90;;;;;;5120746;28;20320;-60
2023/04/06 11:57:03;;;;;;;18.13;11.65;;;8.60;99.90;;;;;;5120649;28;20024;-60
2023/04/06 11:59:29;;;;;;;17.40;11.90;;;8.60;99.90;;;;;;5120539;28;20114;-60
2023/04/06 12:01:55;;;;;;;16.20;11.80;;;8.50;99.90;;;;;;5120951;28;20035;-62
2023/04/06 12:04:21;;;;;;;17.13;11.95;;;8.50;99.90;;;;;;5120421;28;20035;-60
2023/04/06 12:06:48;;;;;;;18.70;11.85;;;8.60;99.90;;;;;;5120457;28;20315;-61
2023/04/06 12:09:14;;;;;;;14.90;11.70;;;8.70;99.90;;;;;;5120310;28;20046;-61
2023/04/06 12:11:40;;;;;;;15.48;11.40;;;8.70;99.90;;;;;;5120382;28;20027;-61
2023/04/06 12:14:07;;;;;;;16.30;11.98;;;8.70;99.90;;;;;;5120346;28;20299;-62
2023/04/06 12:16:34;;;;;;;18.00;12.32;;;8.70;99.90;;;;;;5120483;28;20395;-60
2023/04/06 12:19:00;;;;;;;16.58;11.68;;;8.80;99.90;;;;;;5120134;28;20036;-61
2023/04/06 12:21:31;;;;;;;15.85;11.05;;;8.90;99.90;;;;;;5120074;28;20023;-61
2023/04/06 12:23:58;;;;;;;18.65;11.77;;;8.90;99.90;;;;;;5120054;28;20345;-62
2023/04/06 12:26:25;;;;;;;19.00;11.85;;;8.90;99.90;;;;;;5120139;28;20031;-61
2023/04/06 12:28:51;;;;;;;15.63;11.25;;;8.90;99.90;;;;;;5119971;28;20438;-63
2023/04/06 12:31:18;;;;;;;17.60;11.73;;;9.00;99.90;;;;;;5119978;28;20020;-63
2023/04/06 12:33:47;;;;;;;16.83;10.60;;;9.10;99.90;;;;;;5119852;28;20028;-61
2023/04/06 12:36:15;;;;;;;17.08;11.52;;;9.00;99.90;;;;;;5119099;28;20055;-61
2023/04/06 12:38:41;;;;;;;14.02;10.95;;;9.00;99.90;;;;;;5119121;28;20106;-63
2023/04/06 12:41:07;;;;;;;16.38;11.68;;;9.00;99.90;;;;;;5119601;28;20055;-61
2023/04/06 12:43:34;;;;;;;14.15;10.75;;;8.90;99.90;;;;;;5118305;28;20118;-61
2023/04/06 12:46:00;;;;;;;15.18;10.90;;;8.90;99.90;;;;;;5118932;28;20031;-60
2023/04/06 12:48:27;;;;;;;16.38;11.95;;;8.90;99.90;;;;;;5119485;28;20024;-62
2023/04/06 12:51:01;;;;;;;15.32;11.73;;;8.90;99.90;;;;;;5119200;28;20123;-62
2023/04/06 12:53:27;;;;;;;15.23;10.80;;;9.00;99.90;;;;;;5119489;28;20031;-61